sensor_id;sensor_type;location;lat;lon;timestamp;pressure;altitude;pressure_sealevel;temperature;humidity
57068;BME280;43391;47.448;18.904;2023-04-30T07:36:15;99740.19;;;14.03;93.09
57068;BME280;43391;47.448;18.904;2023-04-30T07:38:41;99743.97;;;14.26;92.91
57068;BME280;43391;47.448;18.904;2023-04-30T07:41:06;99744.03;;;14.39;89.19
57068;BME280;43391;47.448;18.904;2023-04-30T07:43:34;99743.31;;;14.50;86.78
57068;BME280;43391;47.448;18.904;2023-04-30T07:46:00;99753.41;;;14.69;86.77
57068;BME280;43391;47.448;18.904;2023-04-30T07:48:25;99754.81;;;14.75;84.26
57068;BME280;43391;47.448;18.904;2023-04-30T07:50:51;99752.56;;;14.83;83.54
57068;BME280;43391;47.448;18.904;2023-04-30T07:53:16;99755.69;;;14.88;82.81
57068;BME280;43391;47.448;18.904;2023-04-30T07:55:41;99758.34;;;15.01;81.75
57068;BME280;43391;47.448;18.904;2023-04-30T07:58:07;99750.91;;;15.08;83.71
57068;BME280;43391;47.448;18.904;2023-04-30T08:00:32;99748.00;;;15.26;83.14
57068;BME280;43391;47.448;18.904;2023-04-30T08:02:58;99753.94;;;15.28;82.52
57068;BME280;43391;47.448;18.904;2023-04-30T08:05:25;99755.84;;;15.26;82.54
57068;BME280;43391;47.448;18.904;2023-04-30T08:07:51;99749.75;;;15.51;82.45
57068;BME280;43391;47.448;18.904;2023-04-30T08:10:16;99748.69;;;15.67;81.42
57068;BME280;43391;47.448;18.904;2023-04-30T08:12:42;99756.00;;;15.88;79.43
57068;BME280;43391;47.448;18.904;2023-04-30T08:15:07;99750.00;;;15.99;77.50
57068;BME280;43391;47.448;18.904;2023-04-30T08:17:33;99753.59;;;16.22;76.30
57068;BME280;43391;47.448;18.904;2023-04-30T08:20:00;99756.13;;;16.24;74.52
57068;BME280;43391;47.448;18.904;2023-04-30T08:22:25;99758.81;;;16.35;73.93
57068;BME280;43391;47.448;18.904;2023-04-30T08:24:51;99749.69;;;16.41;73.63
57068;BME280;43391;47.448;18.904;2023-04-30T08:27:16;99745.34;;;16.53;71.32
57068;BME280;43391;47.448;18.904;2023-04-30T08:29:42;99752.09;;;16.80;70.30
57068;BME280;43391;47.448;18.904;2023-04-30T08:32:07;99746.53;;;16.96;71.67
57068;BME280;43391;47.448;18.904;2023-04-30T08:34:33;99746.03;;;17.15;71.16
57068;BME280;43391;47.448;18.904;2023-04-30T08:36:59;99743.91;;;17.32;70.22
57068;BME280;43391;47.448;18.904;2023-04-30T08:39:24;99749.00;;;17.10;67.22
57068;BME280;43391;47.448;18.904;2023-04-30T08:41:54;99743.53;;;17.25;67.27
57068;BME280;43391;47.448;18.904;2023-04-30T08:44:21;99746.16;;;17.36;67.47
57068;BME280;43391;47.448;18.904;2023-04-30T08:46:54;99740.69;;;17.51;66.38
57068;BME280;43391;47.448;18.904;2023-04-30T08:49:23;99737.69;;;17.44;64.53
57068;BME280;43391;47.448;18.904;2023-04-30T08:51:49;99744.63;;;17.68;64.07
57068;BME280;43391;47.448;18.904;2023-04-30T08:54:16;99741.88;;;17.92;64.42
57068;BME280;43391;47.448;18.904;2023-04-30T08:56:43;99739.38;;;17.68;62.60
57068;BME280;43391;47.448;18.904;2023-04-30T08:59:09;99744.63;;;17.34;64.27
57068;BME280;43391;47.448;18.904;2023-04-30T09:01:34;99748.31;;;17.31;63.66
57068;BME280;43391;47.448;18.904;2023-04-30T09:04:02;99749.59;;;17.14;59.64
57068;BME280;43391;47.448;18.904;2023-04-30T09:06:28;99745.97;;;17.04;59.93
57068;BME280;43391;47.448;18.904;2023-04-30T09:08:53;99748.66;;;17.15;60.78
57068;BME280;43391;47.448;18.904;2023-04-30T09:11:26;99744.81;;;17.08;62.71
57068;BME280;43391;47.448;18.904;2023-04-30T09:13:54;99746.31;;;16.99;64.13
57068;BME280;43391;47.448;18.904;2023-04-30T09:16:20;99747.34;;;16.85;64.48
57068;BME280;43391;47.448;18.904;2023-04-30T09:18:46;99743.84;;;16.73;64.67
57068;BME280;43391;47.448;18.904;2023-04-30T09:21:12;99746.53;;;17.32;64.07
57068;BME280;43391;47.448;18.904;2023-04-30T09:23:53;99741.88;;;17.70;62.35
57068;BME280;43391;47.448;18.904;2023-04-30T09:26:25;99743.22;;;17.41;63.76
57068;BME280;43391;47.448;18.904;2023-04-30T09:28:55;99730.41;;;17.13;64.51
57068;BME280;43391;47.448;18.904;2023-04-30T09:31:21;99729.44;;;17.15;64.88
57068;BME280;43391;47.448;18.904;2023-04-30T09:33:47;99725.38;;;17.10;62.80
57068;BME280;43391;47.448;18.904;2023-04-30T09:36:12;99733.41;;;17.43;62.42
57068;BME280;43391;47.448;18.904;2023-04-30T09:38:38;99737.00;;;17.42;62.90
57068;BME280;43391;47.448;18.904;2023-04-30T09:41:03;99730.63;;;17.22;62.95
57068;BME280;43391;47.448;18.904;2023-04-30T09:43:29;99725.75;;;17.51;62.88
57068;BME280;43391;47.448;18.904;2023-04-30T09:45:57;99719.56;;;17.75;61.88
57068;BME280;43391;47.448;18.904;2023-04-30T09:48:26;99726.03;;;18.27;61.69
57068;BME280;43391;47.448;18.904;2023-04-30T09:50:52;99723.75;;;18.66;58.33
57068;BME280;43391;47.448;18.904;2023-04-30T09:53:18;99727.72;;;19.03;56.34
57068;BME280;43391;47.448;18.904;2023-04-30T09:55:46;99727.22;;;19.31;55.36
57068;BME280;43391;47.448;18.904;2023-04-30T09:58:14;99725.59;;;19.39;54.08
57068;BME280;43391;47.448;18.904;2023-04-30T10:00:40;99730.50;;;19.54;54.53
57068;BME280;43391;47.448;18.904;2023-04-30T10:03:11;99730.38;;;19.56;53.89
57068;BME280;43391;47.448;18.904;2023-04-30T10:05:40;99728.47;;;19.68;55.10
57068;BME280;43391;47.448;18.904;2023-04-30T10:08:09;99718.97;;;19.96;51.36
57068;BME280;43391;47.448;18.904;2023-04-30T10:10:39;99716.75;;;19.82;51.60
57068;BME280;43391;47.448;18.904;2023-04-30T10:13:10;99720.94;;;19.53;52.26
57068;BME280;43391;47.448;18.904;2023-04-30T10:15:44;99714.25;;;19.18;51.89
57068;BME280;43391;47.448;18.904;2023-04-30T10:18:22;99716.03;;;19.38;53.78
57068;BME280;43391;47.448;18.904;2023-04-30T10:20:52;99723.88;;;19.60;53.52
57068;BME280;43391;47.448;18.904;2023-04-30T10:23:20;99716.69;;;19.72;52.11
57068;BME280;43391;47.448;18.904;2023-04-30T10:25:46;99709.94;;;19.79;52.17
57068;BME280;43391;47.448;18.904;2023-04-30T10:28:11;99718.28;;;19.94;53.42
57068;BME280;43391;47.448;18.904;2023-04-30T10:30:37;99713.75;;;20.06;52.45
57068;BME280;43391;47.448;18.904;2023-04-30T10:33:14;99715.59;;;20.15;50.66
57068;BME280;43391;47.448;18.904;2023-04-30T10:35:49;99707.19;;;19.90;51.40
57068;BME280;43391;47.448;18.904;2023-04-30T10:38:21;99718.03;;;19.56;48.92
57068;BME280;43391;47.448;18.904;2023-04-30T10:40:47;99716.13;;;19.68;49.90
57068;BME280;43391;47.448;18.904;2023-04-30T10:43:13;99706.19;;;19.82;49.33
57068;BME280;43391;47.448;18.904;2023-04-30T10:45:42;99713.44;;;19.89;49.51
57068;BME280;43391;47.448;18.904;2023-04-30T10:48:08;99712.16;;;19.94;49.60
57068;BME280;43391;47.448;18.904;2023-04-30T10:50:39;99710.16;;;19.97;46.23
57068;BME280;43391;47.448;18.904;2023-04-30T10:53:06;99706.28;;;20.11;45.54
57068;BME280;43391;47.448;18.904;2023-04-30T10:55:32;99714.31;;;20.20;48.20
57068;BME280;43391;47.448;18.904;2023-04-30T10:57:58;99711.41;;;20.33;47.39
57068;BME280;43391;47.448;18.904;2023-04-30T11:00:25;99710.28;;;20.65;47.16
57068;BME280;43391;47.448;18.904;2023-04-30T11:02:56;99701.97;;;20.89;46.42
57068;BME280;43391;47.448;18.904;2023-04-30T11:05:33;99698.91;;;20.84;45.61
57068;BME280;43391;47.448;18.904;2023-04-30T11:07:59;99695.72;;;20.90;46.13
57068;BME280;43391;47.448;18.904;2023-04-30T11:10:29;99693.22;;;20.79;46.12
57068;BME280;43391;47.448;18.904;2023-04-30T11:12:56;99696.00;;;20.57;46.25
57068;BME280;43391;47.448;18.904;2023-04-30T11:15:25;99700.88;;;20.92;48.24
57068;BME280;43391;47.448;18.904;2023-04-30T11:17:55;99700.56;;;21.05;46.30
57068;BME280;43391;47.448;18.904;2023-04-30T11:20:22;99706.16;;;21.30;44.62
57068;BME280;43391;47.448;18.904;2023-04-30T11:23:10;99702.50;;;21.03;45.28
57068;BME280;43391;47.448;18.904;2023-04-30T11:25:40;99714.16;;;21.10;45.75
57068;BME280;43391;47.448;18.904;2023-04-30T11:28:06;99712.22;;;20.92;43.97
57068;BME280;43391;47.448;18.904;2023-04-30T11:30:32;99709.59;;;20.82;43.02
57068;BME280;43391;47.448;18.904;2023-04-30T11:33:00;99700.28;;;20.88;42.31
57068;BME280;43391;47.448;18.904;2023-04-30T11:35:27;99707.34;;;21.07;44.27
57068;BME280;43391;47.448;18.904;2023-04-30T11:37:54;99707.19;;;21.19;45.53
57068;BME280;43391;47.448;18.904;2023-04-30T11:40:21;99703.72;;;21.46;42.40
57068;BME280;43391;47.448;18.904;2023-04-30T11:42:46;99703.75;;;20.98;43.48
57068;BME280;43391;47.448;18.904;2023-04-30T11:45:14;99707.41;;;20.88;43.90
57068;BME280;43391;47.448;18.904;2023-04-30T11:47:49;99707.44;;;21.26;43.31
57068;BME280;43391;47.448;18.904;2023-04-30T11:50:17;99706.88;;;21.22;43.14
57068;BME280;43391;47.448;18.904;2023-04-30T11:52:51;99710.22;;;21.14;42.79
57068;BME280;43391;47.448;18.904;2023-04-30T11:55:21;99708.84;;;21.20;42.10
57068;BME280;43391;47.448;18.904;2023-04-30T11:57:49;99708.50;;;21.71;42.98
57068;BME280;43391;47.448;18.904;2023-04-30T12:00:19;99699.16;;;21.76;41.60
57068;BME280;43391;47.448;18.904;2023-04-30T12:02:48;99706.84;;;21.32;42.11
57068;BME280;43391;47.448;18.904;2023-04-30T12:05:18;99702.81;;;20.50;44.44
57068;BME280;43391;47.448;18.904;2023-04-30T12:07:49;99714.22;;;20.31;46.42
57068;BME280;43391;47.448;18.904;2023-04-30T12:10:18;99696.91;;;19.87;45.22
57068;BME280;43391;47.448;18.904;2023-04-30T12:12:44;99705.84;;;19.55;46.26
57068;BME280;43391;47.448;18.904;2023-04-30T12:15:19;99696.25;;;19.44;47.00
57068;BME280;43391;47.448;18.904;2023-04-30T12:17:47;99699.81;;;19.33;46.36
57068;BME280;43391;47.448;18.904;2023-04-30T12:20:14;99697.19;;;19.12;46.30
57068;BME280;43391;47.448;18.904;2023-04-30T12:22:40;99695.88;;;18.96;47.37
57068;BME280;43391;47.448;18.904;2023-04-30T12:25:27;99695.47;;;19.01;48.56
57068;BME280;43391;47.448;18.904;2023-04-30T12:27:53;99696.03;;;19.57;48.51
57068;BME280;43391;47.448;18.904;2023-04-30T12:30:28;99686.44;;;19.97;46.39
57068;BME280;43391;47.448;18.904;2023-04-30T12:32:57;99681.88;;;20.29;44.42
57068;BME280;43391;47.448;18.904;2023-04-30T12:35:23;99685.44;;;20.77;44.45
57068;BME280;43391;47.448;18.904;2023-04-30T12:37:50;99685.00;;;21.40;42.77
57068;BME280;43391;47.448;18.904;2023-04-30T12:40:17;99678.69;;;21.50;41.51
57068;BME280;43391;47.448;18.904;2023-04-30T12:42:42;99680.28;;;21.71;42.13
57068;BME280;43391;47.448;18.904;2023-04-30T12:45:09;99681.03;;;21.54;40.68
57068;BME280;43391;47.448;18.904;2023-04-30T12:47:39;99677.16;;;21.48;41.35
57068;BME280;43391;47.448;18.904;2023-04-30T12:50:13;99675.41;;;21.95;40.77
57068;BME280;43391;47.448;18.904;2023-04-30T12:52:42;99671.75;;;21.96;39.52
57068;BME280;43391;47.448;18.904;2023-04-30T12:55:18;99673.34;;;21.88;39.65
57068;BME280;43391;47.448;18.904;2023-04-30T13:00:50;99659.44;;;22.41;39.48
57068;BME280;43391;47.448;18.904;2023-04-30T13:03:20;99659.53;;;22.31;38.97
57068;BME280;43391;47.448;18.904;2023-04-30T13:05:47;99661.66;;;22.27;38.78
57068;BME280;43391;47.448;18.904;2023-04-30T13:08:13;99664.94;;;22.48;40.05
57068;BME280;43391;47.448;18.904;2023-04-30T13:10:39;99660.66;;;22.65;38.50
57068;BME280;43391;47.448;18.904;2023-04-30T13:13:04;99652.81;;;22.37;37.76
57068;BME280;43391;47.448;18.904;2023-04-30T13:15:29;99643.38;;;22.34;38.09
57068;BME280;43391;47.448;18.904;2023-04-30T13:17:55;99644.78;;;22.65;37.57
57068;BME280;43391;47.448;18.904;2023-04-30T13:20:20;99651.06;;;22.46;38.38
57068;BME280;43391;47.448;18.904;2023-04-30T13:22:46;99641.84;;;22.68;37.91
57068;BME280;43391;47.448;18.904;2023-04-30T13:25:11;99643.16;;;22.72;37.16
57068;BME280;43391;47.448;18.904;2023-04-30T13:27:36;99641.97;;;22.93;37.65
57068;BME280;43391;47.448;18.904;2023-04-30T13:30:03;99644.50;;;23.03;36.79
57068;BME280;43391;47.448;18.904;2023-04-30T13:32:28;99640.78;;;23.22;36.50
57068;BME280;43391;47.448;18.904;2023-04-30T13:34:54;99638.88;;;23.32;36.67
57068;BME280;43391;47.448;18.904;2023-04-30T13:37:20;99645.56;;;23.53;36.17
57068;BME280;43391;47.448;18.904;2023-04-30T13:39:45;99633.31;;;23.60;34.96
57068;BME280;43391;47.448;18.904;2023-04-30T13:42:12;99647.88;;;23.56;35.83
57068;BME280;43391;47.448;18.904;2023-04-30T13:44:38;99647.56;;;23.68;36.02
57068;BME280;43391;47.448;18.904;2023-04-30T13:47:03;99645.47;;;23.96;35.45
57068;BME280;43391;47.448;18.904;2023-04-30T13:49:29;99637.97;;;23.67;34.87
57068;BME280;43391;47.448;18.904;2023-04-30T13:51:54;99642.63;;;23.81;35.57
57068;BME280;43391;47.448;18.904;2023-04-30T13:54:20;99648.47;;;23.93;35.12
57068;BME280;43391;47.448;18.904;2023-04-30T13:56:46;99650.38;;;23.23;34.70
57068;BME280;43391;47.448;18.904;2023-04-30T13:59:13;99645.56;;;23.18;35.82
57068;BME280;43391;47.448;18.904;2023-04-30T14:01:39;99643.72;;;23.19;35.73
57068;BME280;43391;47.448;18.904;2023-04-30T14:04:04;99646.47;;;23.01;35.29
57068;BME280;43391;47.448;18.904;2023-04-30T14:06:30;99642.88;;;23.10;35.90
57068;BME280;43391;47.448;18.904;2023-04-30T14:08:56;99642.44;;;23.23;35.22
57068;BME280;43391;47.448;18.904;2023-04-30T14:11:21;99643.94;;;23.26;35.25
57068;BME280;43391;47.448;18.904;2023-04-30T14:13:46;99643.53;;;23.39;35.77
57068;BME280;43391;47.448;18.904;2023-04-30T14:16:12;99644.53;;;23.46;34.98
57068;BME280;43391;47.448;18.904;2023-04-30T14:18:37;99646.50;;;23.09;35.32
57068;BME280;43391;47.448;18.904;2023-04-30T14:21:02;99642.28;;;23.25;35.53
57068;BME280;43391;47.448;18.904;2023-04-30T14:23:28;99634.53;;;23.31;35.86
57068;BME280;43391;47.448;18.904;2023-04-30T14:25:53;99634.94;;;23.45;35.50
57068;BME280;43391;47.448;18.904;2023-04-30T14:28:19;99633.03;;;23.88;34.77
57068;BME280;43391;47.448;18.904;2023-04-30T14:30:45;99642.31;;;23.93;34.06
57068;BME280;43391;47.448;18.904;2023-04-30T14:33:10;99637.84;;;23.93;34.72
57068;BME280;43391;47.448;18.904;2023-04-30T14:35:36;99631.50;;;23.69;34.08
57068;BME280;43391;47.448;18.904;2023-04-30T14:38:02;99636.84;;;23.86;34.44
57068;BME280;43391;47.448;18.904;2023-04-30T14:40:27;99635.19;;;23.93;33.85
57068;BME280;43391;47.448;18.904;2023-04-30T14:42:53;99641.00;;;23.97;33.57
57068;BME280;43391;47.448;18.904;2023-04-30T14:45:18;99633.56;;;23.92;34.22
57068;BME280;43391;47.448;18.904;2023-04-30T14:47:44;99641.81;;;23.89;34.26
57068;BME280;43391;47.448;18.904;2023-04-30T14:50:09;99639.69;;;24.01;34.13
57068;BME280;43391;47.448;18.904;2023-04-30T14:52:35;99641.66;;;23.99;33.74
57068;BME280;43391;47.448;18.904;2023-04-30T14:55:00;99646.41;;;23.62;33.88
57068;BME280;43391;47.448;18.904;2023-04-30T14:57:25;99645.75;;;23.68;34.35
57068;BME280;43391;47.448;18.904;2023-04-30T14:59:51;99636.28;;;23.57;33.87
57068;BME280;43391;47.448;18.904;2023-04-30T15:02:18;99644.97;;;23.84;34.20
57068;BME280;43391;47.448;18.904;2023-04-30T15:04:45;99637.56;;;24.13;34.07
57068;BME280;43391;47.448;18.904;2023-04-30T15:07:11;99643.84;;;24.12;33.84
57068;BME280;43391;47.448;18.904;2023-04-30T15:09:36;99644.81;;;24.02;33.35
57068;BME280;43391;47.448;18.904;2023-04-30T15:12:02;99644.53;;;24.14;33.61
57068;BME280;43391;47.448;18.904;2023-04-30T15:14:28;99646.19;;;24.40;32.75
57068;BME280;43391;47.448;18.904;2023-04-30T15:16:53;99652.78;;;24.61;33.07
57068;BME280;43391;47.448;18.904;2023-04-30T15:19:19;99648.13;;;24.71;31.87
57068;BME280;43391;47.448;18.904;2023-04-30T15:21:44;99654.63;;;24.44;32.21
57068;BME280;43391;47.448;18.904;2023-04-30T15:24:09;99649.16;;;25.18;31.79
57068;BME280;43391;47.448;18.904;2023-04-30T15:26:35;99655.75;;;25.31;31.26
57068;BME280;43391;47.448;18.904;2023-04-30T15:29:00;99656.38;;;25.41;30.67
57068;BME280;43391;47.448;18.904;2023-04-30T15:31:25;99660.28;;;25.62;30.40
57068;BME280;43391;47.448;18.904;2023-04-30T15:33:51;99655.66;;;25.87;30.00
57068;BME280;43391;47.448;18.904;2023-04-30T15:36:16;99667.53;;;25.37;30.42
57068;BME280;43391;47.448;18.904;2023-04-30T15:38:42;99669.25;;;25.61;30.33
57068;BME280;43391;47.448;18.904;2023-04-30T15:41:07;99687.06;;;26.39;29.90
57068;BME280;43391;47.448;18.904;2023-04-30T15:43:32;99691.66;;;26.45;29.23
57068;BME280;43391;47.448;18.904;2023-04-30T15:45:58;99708.63;;;25.89;29.91
57068;BME280;43391;47.448;18.904;2023-04-30T15:48:23;99705.69;;;24.54;34.73
57068;BME280;43391;47.448;18.904;2023-04-30T15:50:49;99697.88;;;23.25;38.97
57068;BME280;43391;47.448;18.904;2023-04-30T15:53:15;99702.03;;;21.55;44.19
57068;BME280;43391;47.448;18.904;2023-04-30T15:55:40;99705.59;;;20.58;47.85
57068;BME280;43391;47.448;18.904;2023-04-30T15:58:06;99700.09;;;19.91;50.56
57068;BME280;43391;47.448;18.904;2023-04-30T16:00:32;99698.59;;;19.16;53.39
57068;BME280;43391;47.448;18.904;2023-04-30T16:02:57;99698.78;;;18.61;56.19
57068;BME280;43391;47.448;18.904;2023-04-30T16:05:23;99694.31;;;18.18;57.89
57068;BME280;43391;47.448;18.904;2023-04-30T16:07:48;99698.88;;;17.93;59.46
57068;BME280;43391;47.448;18.904;2023-04-30T16:10:13;99701.81;;;17.56;60.86
57068;BME280;43391;47.448;18.904;2023-04-30T16:12:39;99708.25;;;17.40;62.05
57068;BME280;43391;47.448;18.904;2023-04-30T16:15:05;99709.69;;;17.33;62.55
57068;BME280;43391;47.448;18.904;2023-04-30T16:17:31;99708.84;;;17.21;63.30
57068;BME280;43391;47.448;18.904;2023-04-30T16:19:57;99708.25;;;17.18;64.51
57068;BME280;43391;47.448;18.904;2023-04-30T16:22:24;99714.19;;;17.20;64.12
57068;BME280;43391;47.448;18.904;2023-04-30T16:24:51;99708.94;;;17.20;64.75
57068;BME280;43391;47.448;18.904;2023-04-30T16:27:16;99716.13;;;17.18;64.84
57068;BME280;43391;47.448;18.904;2023-04-30T16:29:41;99713.44;;;17.06;65.46
57068;BME280;43391;47.448;18.904;2023-04-30T16:32:07;99707.94;;;16.98;65.94
57068;BME280;43391;47.448;18.904;2023-04-30T16:34:32;99708.06;;;16.96;66.35
57068;BME280;43391;47.448;18.904;2023-04-30T16:36:58;99707.34;;;16.94;66.15
57068;BME280;43391;47.448;18.904;2023-04-30T16:39:23;99707.34;;;16.94;66.52
57068;BME280;43391;47.448;18.904;2023-04-30T16:41:49;99712.81;;;16.91;66.89
57068;BME280;43391;47.448;18.904;2023-04-30T16:44:14;99708.75;;;16.98;66.47
57068;BME280;43391;47.448;18.904;2023-04-30T16:46:39;99714.00;;;16.98;66.39
57068;BME280;43391;47.448;18.904;2023-04-30T16:49:04;99715.91;;;16.96;68.49
57068;BME280;43391;47.448;18.904;2023-04-30T16:51:30;99717.63;;;17.09;69.84
57068;BME280;43391;47.448;18.904;2023-04-30T16:53:57;99728.75;;;17.12;67.61
57068;BME280;43391;47.448;18.904;2023-04-30T16:56:22;99730.63;;;17.10;67.36
57068;BME280;43391;47.448;18.904;2023-04-30T16:58:48;99733.19;;;16.99;67.43
57068;BME280;43391;47.448;18.904;2023-04-30T17:01:13;99738.81;;;16.94;68.28
57068;BME280;43391;47.448;18.904;2023-04-30T17:03:38;99734.25;;;16.85;70.46
57068;BME280;43391;47.448;18.904;2023-04-30T17:06:04;99736.47;;;16.78;70.63
57068;BME280;43391;47.448;18.904;2023-04-30T17:08:30;99736.84;;;16.73;72.12
57068;BME280;43391;47.448;18.904;2023-04-30T17:10:55;99736.84;;;16.73;71.61
57068;BME280;43391;47.448;18.904;2023-04-30T17:13:21;99749.56;;;16.67;71.85
57068;BME280;43391;47.448;18.904;2023-04-30T17:15:46;99755.66;;;16.67;71.76
57068;BME280;43391;47.448;18.904;2023-04-30T17:18:12;99749.66;;;16.65;72.71
57068;BME280;43391;47.448;18.904;2023-04-30T17:20:39;99749.66;;;16.65;75.48
57068;BME280;43391;47.448;18.904;2023-04-30T17:23:05;99748.69;;;16.66;77.53
57068;BME280;43391;47.448;18.904;2023-04-30T17:25:30;99744.03;;;16.58;76.87
57068;BME280;43391;47.448;18.904;2023-04-30T17:27:56;99743.59;;;16.40;78.63
57068;BME280;43391;47.448;18.904;2023-04-30T17:30:26;99741.31;;;16.36;80.63
57068;BME280;43391;47.448;18.904;2023-04-30T17:32:51;99743.03;;;16.24;80.70
57068;BME280;43391;47.448;18.904;2023-04-30T17:35:17;99736.69;;;16.15;82.79
57068;BME280;43391;47.448;18.904;2023-04-30T17:37:43;99737.22;;;16.07;81.12
57068;BME280;43391;47.448;18.904;2023-04-30T17:40:09;99743.72;;;16.01;82.17
57068;BME280;43391;47.448;18.904;2023-04-30T17:42:34;99742.81;;;15.89;81.10
57068;BME280;43391;47.448;18.904;2023-04-30T17:45:00;99746.25;;;15.77;81.38
57068;BME280;43391;47.448;18.904;2023-04-30T17:47:26;99746.69;;;15.71;80.76
57068;BME280;43391;47.448;18.904;2023-04-30T17:49:52;99744.72;;;15.61;81.38
57068;BME280;43391;47.448;18.904;2023-04-30T17:52:17;99745.03;;;15.57;82.44
57068;BME280;43391;47.448;18.904;2023-04-30T17:54:43;99752.06;;;15.43;83.42
57068;BME280;43391;47.448;18.904;2023-04-30T17:57:08;99753.63;;;15.46;83.53
57068;BME280;43391;47.448;18.904;2023-04-30T17:59:34;99752.72;;;15.47;84.28
57068;BME280;43391;47.448;18.904;2023-04-30T18:01:59;99753.94;;;15.41;84.46
57068;BME280;43391;47.448;18.904;2023-04-30T18:04:25;99763.69;;;15.52;83.09
57068;BME280;43391;47.448;18.904;2023-04-30T18:06:50;99758.47;;;15.39;82.74
57068;BME280;43391;47.448;18.904;2023-04-30T18:09:16;99764.09;;;15.33;83.37
57068;BME280;43391;47.448;18.904;2023-04-30T18:11:42;99761.78;;;15.28;83.41
57068;BME280;43391;47.448;18.904;2023-04-30T18:14:08;99763.34;;;15.18;83.86
57068;BME280;43391;47.448;18.904;2023-04-30T18:16:34;99761.88;;;15.13;83.59
57068;BME280;43391;47.448;18.904;2023-04-30T18:18:59;99759.59;;;15.09;84.18
57068;BME280;43391;47.448;18.904;2023-04-30T18:21:25;99768.56;;;15.05;80.87
57068;BME280;43391;47.448;18.904;2023-04-30T18:23:51;99770.13;;;14.94;78.36
57068;BME280;43391;47.448;18.904;2023-04-30T18:26:20;99770.56;;;15.01;75.78
57068;BME280;43391;47.448;18.904;2023-04-30T18:28:46;99771.91;;;14.94;70.26
57068;BME280;43391;47.448;18.904;2023-04-30T18:31:12;99778.28;;;14.90;70.92
57068;BME280;43391;47.448;18.904;2023-04-30T18:33:38;99779.31;;;14.87;72.16
57068;BME280;43391;47.448;18.904;2023-04-30T18:36:03;99778.16;;;14.78;71.83
57068;BME280;43391;47.448;18.904;2023-04-30T18:38:30;99780.94;;;14.75;70.68
57068;BME280;43391;47.448;18.904;2023-04-30T18:40:55;99784.75;;;14.69;71.40
57068;BME280;43391;47.448;18.904;2023-04-30T18:43:23;99786.94;;;14.63;71.84
57068;BME280;43391;47.448;18.904;2023-04-30T18:45:49;99786.41;;;14.57;72.14
57068;BME280;43391;47.448;18.904;2023-04-30T18:48:15;99797.34;;;14.50;73.12
57068;BME280;43391;47.448;18.904;2023-04-30T18:50:43;99802.28;;;14.40;73.81
57068;BME280;43391;47.448;18.904;2023-04-30T18:53:08;99805.50;;;14.30;74.37
57068;BME280;43391;47.448;18.904;2023-04-30T18:55:34;99805.13;;;14.22;75.81
57068;BME280;43391;47.448;18.904;2023-04-30T18:58:00;99814.56;;;14.10;76.86
57068;BME280;43391;47.448;18.904;2023-04-30T19:00:25;99815.97;;;14.01;77.72
57068;BME280;43391;47.448;18.904;2023-04-30T19:02:51;99808.69;;;13.92;78.15
57068;BME280;43391;47.448;18.904;2023-04-30T19:05:16;99814.69;;;13.79;78.38
57068;BME280;43391;47.448;18.904;2023-04-30T19:07:42;99816.53;;;13.77;77.92
57068;BME280;43391;47.448;18.904;2023-04-30T19:10:08;99813.09;;;13.62;78.14
57068;BME280;43391;47.448;18.904;2023-04-30T19:12:33;99820.63;;;13.52;78.22
57068;BME280;43391;47.448;18.904;2023-04-30T19:14:59;99827.59;;;13.52;77.45
57068;BME280;43391;47.448;18.904;2023-04-30T19:17:25;99832.81;;;13.52;78.68
57068;BME280;43391;47.448;18.904;2023-04-30T19:19:52;99837.50;;;13.45;78.40
57068;BME280;43391;47.448;18.904;2023-04-30T19:22:17;99831.81;;;13.24;79.32
57068;BME280;43391;47.448;18.904;2023-04-30T19:24:43;99830.88;;;13.25;79.99
57068;BME280;43391;47.448;18.904;2023-04-30T19:27:10;99829.81;;;13.13;81.28
57068;BME280;43391;47.448;18.904;2023-04-30T19:29:35;99835.28;;;13.08;81.67
57068;BME280;43391;47.448;18.904;2023-04-30T19:32:03;99833.88;;;13.02;81.03
57068;BME280;43391;47.448;18.904;2023-04-30T19:34:29;99832.03;;;13.05;79.83
57068;BME280;43391;47.448;18.904;2023-04-30T19:36:55;99828.84;;;12.83;81.93
57068;BME280;43391;47.448;18.904;2023-04-30T19:39:20;99840.72;;;12.73;83.53
57068;BME280;43391;47.448;18.904;2023-04-30T19:41:46;99844.09;;;12.75;83.12
57068;BME280;43391;47.448;18.904;2023-04-30T19:44:12;99834.56;;;12.90;82.57
57068;BME280;43391;47.448;18.904;2023-04-30T19:46:38;99843.56;;;12.84;81.95
57068;BME280;43391;47.448;18.904;2023-04-30T19:49:03;99836.38;;;12.73;81.95
57068;BME280;43391;47.448;18.904;2023-04-30T19:51:29;99843.81;;;12.63;81.86
57068;BME280;43391;47.448;18.904;2023-04-30T19:53:56;99843.78;;;12.49;83.18
57068;BME280;43391;47.448;18.904;2023-04-30T19:56:23;99842.66;;;12.37;84.08
57068;BME280;43391;47.448;18.904;2023-04-30T19:58:49;99846.34;;;12.33;82.58
57068;BME280;43391;47.448;18.904;2023-04-30T20:01:15;99850.88;;;12.29;82.08
57068;BME280;43391;47.448;18.904;2023-04-30T20:03:41;99843.81;;;12.31;82.01
57068;BME280;43391;47.448;18.904;2023-04-30T20:06:10;99845.28;;;12.37;83.57
57068;BME280;43391;47.448;18.904;2023-04-30T20:08:36;99842.59;;;12.39;83.44
57068;BME280;43391;47.448;18.904;2023-04-30T20:11:02;99848.63;;;12.23;82.57
57068;BME280;43391;47.448;18.904;2023-04-30T20:13:28;99851.25;;;12.05;83.51
57068;BME280;43391;47.448;18.904;2023-04-30T20:15:53;99850.19;;;11.92;84.84
57068;BME280;43391;47.448;18.904;2023-04-30T20:18:19;99855.72;;;11.86;86.34
57068;BME280;43391;47.448;18.904;2023-04-30T20:20:45;99854.88;;;11.85;86.51
57068;BME280;43391;47.448;18.904;2023-04-30T20:23:13;99856.03;;;11.79;86.85
57068;BME280;43391;47.448;18.904;2023-04-30T20:25:40;99851.06;;;11.75;87.99